createdAt,value
2022-08-04T00:01:09.641Z,22.96
2022-08-04T00:04:02.929Z,22.85
2022-08-04T00:06:48.585Z,23.07
2022-08-04T00:09:43.614Z,23.05
2022-08-04T00:12:12.821Z,23.18
2022-08-04T00:14:51.512Z,23.21
2022-08-04T00:17:30.698Z,23.23
2022-08-04T00:20:03.744Z,23.08
2022-08-04T00:22:32.029Z,23.02
2022-08-04T00:25:05.455Z,23.01
2022-08-04T00:27:33.367Z,22.90
2022-08-04T00:30:06.887Z,23.03
2022-08-04T00:32:35.337Z,23.01
2022-08-04T00:35:03.863Z,23.00
2022-08-04T00:37:33.133Z,23.00
2022-08-04T00:40:03.465Z,22.93
2022-08-04T00:42:58.403Z,22.91
2022-08-04T00:46:10.729Z,22.92
2022-08-04T00:49:10.565Z,22.78
2022-08-04T00:51:48.303Z,22.79
2022-08-04T00:55:07.039Z,22.87
2022-08-04T00:58:00.859Z,22.89
2022-08-04T01:00:34.126Z,22.73
2022-08-04T01:04:03.866Z,22.78
2022-08-04T01:07:14.281Z,22.67
2022-08-04T01:10:50.137Z,22.71
2022-08-04T01:13:29.676Z,22.69
2022-08-04T01:16:07.501Z,22.58
2022-08-04T01:19:02.212Z,22.75
2022-08-04T01:21:29.778Z,22.75
2022-08-04T01:24:41.184Z,22.64
2022-08-04T01:27:52.181Z,22.68
2022-08-04T01:30:19.951Z,22.59
2022-08-04T01:33:10.088Z,22.64
2022-08-04T01:35:51.930Z,22.58
2022-08-04T01:38:40.964Z,22.61
2022-08-04T01:41:12.452Z,22.57
2022-08-04T01:43:46.208Z,22.62
2022-08-04T01:46:17.115Z,22.51
2022-08-04T01:48:47.354Z,22.57
2022-08-04T01:51:15.046Z,22.51
2022-08-04T01:53:44.839Z,22.60
2022-08-04T01:56:13.413Z,22.51
2022-08-04T01:58:44.125Z,22.54
2022-08-04T02:01:13.842Z,22.39
2022-08-04T02:04:19.704Z,22.52
2022-08-04T02:06:46.118Z,22.51
2022-08-04T02:09:26.668Z,22.44
2022-08-04T02:12:35.342Z,22.58
2022-08-04T02:15:29.198Z,22.58
2022-08-04T02:18:20.910Z,22.57
2022-08-04T02:20:56.533Z,22.40
2022-08-04T02:23:40.962Z,22.33
2022-08-04T02:26:22.546Z,22.24
2022-08-04T02:29:32.094Z,22.38
2022-08-04T02:32:07.127Z,22.14
2022-08-04T02:34:53.611Z,22.23
2022-08-04T02:37:24.333Z,22.18
2022-08-04T02:39:56.617Z,22.07
2022-08-04T02:42:24.250Z,22.05
2022-08-04T02:44:51.998Z,21.93
2022-08-04T02:47:22.235Z,21.86
2022-08-04T02:49:52.748Z,21.61
2022-08-04T02:52:21.494Z,21.70
2022-08-04T02:54:54.409Z,21.56
2022-08-04T02:57:27.857Z,21.62
2022-08-04T03:00:10.074Z,21.64
2022-08-04T03:03:06.252Z,21.63
2022-08-04T03:06:10.328Z,21.61
2022-08-04T03:08:38.114Z,21.74
2022-08-04T03:11:41.389Z,21.81
2022-08-04T03:14:58.555Z,21.75
2022-08-04T03:17:53.837Z,21.78
2022-08-04T03:21:09.375Z,21.73
2022-08-04T03:24:20.287Z,21.66
2022-08-04T03:27:44.637Z,21.65
2022-08-04T03:30:23.656Z,21.64
2022-08-04T03:33:15.953Z,21.72
2022-08-04T03:36:10.346Z,21.67
2022-08-04T03:39:38.302Z,21.64
2022-08-04T03:42:33.294Z,21.68
2022-08-04T03:45:27.100Z,21.67
2022-08-04T03:48:34.888Z,21.58
2022-08-04T03:51:52.604Z,21.55
2022-08-04T03:55:08.626Z,21.52
2022-08-04T03:58:05.842Z,21.46
2022-08-04T04:01:14.064Z,21.43
2022-08-04T04:04:18.374Z,21.36
2022-08-04T04:07:24.477Z,21.31
2022-08-04T04:10:28.598Z,21.38
2022-08-04T04:13:26.838Z,21.33
2022-08-04T04:16:27.608Z,21.34
2022-08-04T04:19:22.911Z,21.34
2022-08-04T04:22:08.857Z,21.27
2022-08-04T04:25:04.637Z,21.19
2022-08-04T04:27:51.087Z,21.15
2022-08-04T04:30:55.902Z,21.26
2022-08-04T04:33:56.863Z,21.21
2022-08-04T04:36:38.359Z,21.29
2022-08-04T04:39:31.525Z,21.25
2022-08-04T04:42:48.705Z,21.35
2022-08-04T04:45:47.389Z,21.30
2022-08-04T04:48:31.285Z,21.24
2022-08-04T04:51:19.400Z,21.10
2022-08-04T04:54:21.843Z,21.21
2022-08-04T04:57:18.098Z,21.30
2022-08-04T04:59:59.768Z,21.25
2022-08-04T05:03:14.250Z,21.35
2022-08-04T05:05:56.859Z,21.26
2022-08-04T05:08:44.251Z,21.20
2022-08-04T05:11:37.477Z,21.30
2022-08-04T05:14:38.407Z,21.38
2022-08-04T05:17:10.749Z,21.60
2022-08-04T05:20:08.891Z,21.65
2022-08-04T05:23:03.088Z,21.57
2022-08-04T05:25:39.253Z,21.67
2022-08-04T05:28:19.670Z,21.72
2022-08-04T05:30:59.474Z,21.59
2022-08-04T05:33:41.200Z,21.48
2022-08-04T05:36:35.324Z,21.67
2022-08-04T05:39:10.178Z,21.65
2022-08-04T05:41:45.939Z,21.78
2022-08-04T05:44:22.515Z,21.73
2022-08-04T05:46:55.152Z,21.82
2022-08-04T05:49:28.667Z,21.90
2022-08-04T05:52:01.380Z,21.91
2022-08-04T05:54:31.564Z,21.89
2022-08-04T05:57:00.063Z,21.94
2022-08-04T05:59:29.621Z,21.91
2022-08-04T06:02:00.421Z,21.87
2022-08-04T06:04:45.318Z,22.02
2022-08-04T06:07:14.283Z,21.91
2022-08-04T06:09:42.762Z,21.90
2022-08-04T06:12:28.416Z,21.99
2022-08-04T06:14:59.624Z,21.97
2022-08-04T06:19:56.903Z,22.10
2022-08-04T06:20:38.487Z,22.20
2022-08-04T06:23:20.854Z,22.01
2022-08-04T06:25:53.378Z,22.09
2022-08-04T06:28:22.098Z,21.97
2022-08-04T06:30:51.210Z,22.08
2022-08-04T06:33:54.369Z,22.09
2022-08-04T06:36:23.359Z,21.92
2022-08-04T06:38:58.515Z,22.03
2022-08-04T06:41:29.085Z,21.94
2022-08-04T06:44:01.564Z,21.99
2022-08-04T06:46:31.362Z,21.99
2022-08-04T06:48:59.772Z,22.06
2022-08-04T06:51:38.009Z,22.06
2022-08-04T06:54:12.895Z,21.97
2022-08-04T06:56:41.758Z,22.11
2022-08-04T06:59:11.857Z,22.10
2022-08-04T07:01:40.892Z,22.15
2022-08-04T07:04:08.948Z,22.25
2022-08-04T07:06:36.757Z,22.23
2022-08-04T07:09:06.225Z,22.15
2022-08-04T07:11:44.139Z,22.30
2022-08-04T07:14:13.110Z,22.39
2022-08-04T07:16:42.086Z,22.66
2022-08-04T07:19:10.088Z,22.66
2022-08-04T07:21:39.605Z,22.91
2022-08-04T07:24:07.417Z,23.03
2022-08-04T07:26:35.094Z,23.17
2022-08-04T07:29:03.084Z,23.13
2022-08-04T07:31:34.223Z,23.31
2022-08-04T07:34:17.757Z,23.35
2022-08-04T07:36:55.352Z,23.17
2022-08-04T07:39:28.319Z,23.28
2022-08-04T07:42:01.443Z,23.30
2022-08-04T07:44:32.168Z,23.27
2022-08-04T07:47:02.434Z,23.15
2022-08-04T07:49:54.774Z,23.29
2022-08-04T07:52:18.815Z,23.29
2022-08-04T07:54:47.371Z,23.26
2022-08-04T07:57:19.454Z,23.16
2022-08-04T07:59:56.719Z,23.25
2022-08-04T08:02:25.331Z,23.24
2022-08-04T08:04:53.616Z,23.12
2022-08-04T08:07:21.685Z,23.19
2022-08-04T08:09:51.513Z,23.25
2022-08-04T08:12:35.881Z,23.28
2022-08-04T08:15:15.779Z,23.16
2022-08-04T08:17:59.646Z,23.17
2022-08-04T08:20:30.931Z,23.28
2022-08-04T08:23:03.133Z,23.30
2022-08-04T08:25:33.402Z,23.34
2022-08-04T08:28:06.849Z,23.33
2022-08-04T08:30:35.393Z,23.17
2022-08-04T08:33:07.563Z,23.23
2022-08-04T08:35:54.911Z,23.33
2022-08-04T08:38:55.211Z,23.27
2022-08-04T08:41:52.089Z,23.35
2022-08-04T08:45:12.835Z,23.40
2022-08-04T08:48:44.816Z,23.51
2022-08-04T08:51:31.640Z,23.52
2022-08-04T08:54:33.375Z,23.64
2022-08-04T08:57:26.236Z,23.67
2022-08-04T09:00:10.279Z,23.64
2022-08-04T09:03:15.915Z,23.61
2022-08-04T09:05:58.449Z,23.80
2022-08-04T09:09:34.228Z,23.95
2022-08-04T09:12:39.125Z,24.11
2022-08-04T09:15:22.521Z,24.23
2022-08-04T09:18:00.341Z,24.53
2022-08-04T09:20:50.568Z,24.81
2022-08-04T09:23:49.346Z,24.94
2022-08-04T09:26:46.897Z,25.29
2022-08-04T09:29:39.366Z,25.24
2022-08-04T09:32:29.195Z,25.44
2022-08-04T09:35:19.245Z,25.50
2022-08-04T09:38:00.985Z,25.77
2022-08-04T09:40:53.518Z,25.53
2022-08-04T09:43:59.441Z,25.73
2022-08-04T09:46:44.158Z,25.60
2022-08-04T09:49:39.140Z,25.73
2022-08-04T09:52:33.285Z,25.92
2022-08-04T09:55:53.199Z,25.96
2022-08-04T09:59:02.258Z,26.18
2022-08-04T10:01:32.056Z,26.14
2022-08-04T10:04:03.284Z,26.04
2022-08-04T10:06:45.745Z,26.40
2022-08-04T10:09:45.257Z,26.66
2022-08-04T10:12:21.805Z,26.70
2022-08-04T10:15:17.739Z,26.85
2022-08-04T10:17:54.505Z,27.02
2022-08-04T10:20:49.374Z,26.80
2022-08-04T10:23:55.201Z,26.60
2022-08-04T10:27:04.298Z,26.38
2022-08-04T10:29:44.041Z,26.66
2022-08-04T10:32:17.284Z,26.71
2022-08-04T10:34:57.966Z,26.66
2022-08-04T10:37:55.350Z,26.59
2022-08-04T10:40:36.994Z,26.83
2022-08-04T10:43:36.091Z,27.19
2022-08-04T10:46:23.338Z,27.12
2022-08-04T10:49:00.225Z,27.14
2022-08-04T10:51:58.321Z,27.16
2022-08-04T10:54:58.443Z,27.26
2022-08-04T10:57:39.207Z,27.39
2022-08-04T11:00:19.936Z,27.17
2022-08-04T11:03:20.756Z,27.49
2022-08-04T11:05:48.287Z,27.85
2022-08-04T11:08:38.880Z,27.99
2022-08-04T11:11:17.201Z,28.00
2022-08-04T11:13:59.556Z,28.07
2022-08-04T11:16:37.408Z,28.30
2022-08-04T11:19:42.639Z,28.49
2022-08-04T11:22:23.074Z,28.62
2022-08-04T11:25:15.058Z,28.88
2022-08-04T11:28:15.491Z,28.86
2022-08-04T11:30:55.372Z,28.45
2022-08-04T11:33:48.266Z,28.53
2022-08-04T11:36:42.082Z,28.78
2022-08-04T11:39:32.931Z,28.77
2022-08-04T11:42:20.245Z,28.77
2022-08-04T11:45:16.985Z,28.82
2022-08-04T11:47:53.866Z,28.79
2022-08-04T11:50:41.707Z,28.70
2022-08-04T11:53:19.331Z,28.74
2022-08-04T11:56:07.193Z,28.83
2022-08-04T11:58:38.437Z,29.04
2022-08-04T12:01:21.555Z,29.24
2022-08-04T12:04:10.566Z,29.60
2022-08-04T12:07:28.904Z,29.43
2022-08-04T12:10:40.931Z,29.27
2022-08-04T12:13:32.308Z,29.45
2022-08-04T12:16:16.084Z,29.47
2022-08-04T12:18:48.240Z,29.63
2022-08-04T12:21:50.444Z,29.20
2022-08-04T12:24:46.291Z,28.58
2022-08-04T12:27:37.795Z,28.47
2022-08-04T12:31:00.011Z,28.41
2022-08-04T12:33:01.341Z,28.29
2022-08-04T12:36:11.021Z,28.12
2022-08-04T12:38:50.008Z,28.17
2022-08-04T12:41:25.898Z,28.20
2022-08-04T12:43:55.519Z,28.31
2022-08-04T12:46:27.190Z,28.16
2022-08-04T12:49:03.048Z,28.24
2022-08-04T12:52:07.649Z,28.08
2022-08-04T12:54:30.448Z,28.05
2022-08-04T12:56:59.798Z,28.10
2022-08-04T12:59:27.485Z,28.13
2022-08-04T13:02:06.777Z,28.28
2022-08-04T13:04:42.991Z,28.39
2022-08-04T13:07:24.671Z,28.21
2022-08-04T13:09:53.439Z,28.33
2022-08-04T13:12:29.062Z,28.49
2022-08-04T13:15:17.986Z,28.25
2022-08-04T13:17:52.164Z,27.91
2022-08-04T13:20:29.880Z,28.17
2022-08-04T13:23:21.862Z,27.72
2022-08-04T13:26:44.299Z,27.63
2022-08-04T13:28:49.752Z,27.60
2022-08-04T13:31:21.583Z,27.68
2022-08-04T13:33:53.938Z,27.68
2022-08-04T13:36:26.370Z,27.67
2022-08-04T13:38:59.313Z,27.51
2022-08-04T13:41:31.278Z,27.60
2022-08-04T13:44:17.547Z,27.69
2022-08-04T13:46:52.431Z,27.72
2022-08-04T13:49:42.984Z,27.85
2022-08-04T13:52:10.986Z,27.85
2022-08-04T13:54:43.892Z,28.08
2022-08-04T13:57:24.315Z,28.32
2022-08-04T13:59:56.337Z,27.95
2022-08-04T14:02:47.762Z,27.77
2022-08-04T14:05:32.422Z,27.68
2022-08-04T14:08:20.610Z,27.62
2022-08-04T14:10:57.659Z,27.76
2022-08-04T14:13:41.980Z,27.76
2022-08-04T14:16:21.309Z,27.56
2022-08-04T14:19:00.832Z,27.56
2022-08-04T14:21:28.556Z,27.67
2022-08-04T14:23:57.607Z,27.51
2022-08-04T14:26:32.410Z,27.63
2022-08-04T14:29:26.621Z,27.49
2022-08-04T14:32:13.945Z,27.17
2022-08-04T14:34:45.680Z,27.28
2022-08-04T14:37:19.626Z,27.57
2022-08-04T14:40:07.886Z,27.65
2022-08-04T14:42:55.681Z,27.16
2022-08-04T14:45:32.610Z,27.03
2022-08-04T14:48:02.184Z,26.79
2022-08-04T14:50:35.804Z,26.92
2022-08-04T14:53:26.834Z,26.64
2022-08-04T14:55:58.498Z,26.79
2022-08-04T14:58:35.799Z,26.80
2022-08-04T15:01:12.193Z,27.07
2022-08-04T15:03:50.840Z,26.74
2022-08-04T15:06:27.029Z,26.88
2022-08-04T15:08:58.484Z,27.00
2022-08-04T15:11:27.932Z,26.82
2022-08-04T15:13:58.260Z,26.76
2022-08-04T15:16:29.281Z,26.39
2022-08-04T15:18:57.927Z,26.27
2022-08-04T15:21:30.129Z,26.43
2022-08-04T15:23:59.421Z,26.05
2022-08-04T15:26:40.056Z,26.30
2022-08-04T15:29:25.869Z,26.33
2022-08-04T15:32:05.881Z,26.21
2022-08-04T15:34:51.885Z,26.11
2022-08-04T15:37:52.585Z,26.28
2022-08-04T15:40:33.423Z,26.03
2022-08-04T15:43:47.037Z,26.19
2022-08-04T15:46:52.073Z,26.13
2022-08-04T15:49:22.738Z,26.20
2022-08-04T15:52:12.073Z,26.17
2022-08-04T15:54:42.570Z,25.97
2022-08-04T15:58:00.277Z,26.03
2022-08-04T16:00:28.801Z,25.86
2022-08-04T16:02:56.435Z,25.63
2022-08-04T16:05:24.164Z,25.80
2022-08-04T16:08:13.559Z,25.82
2022-08-04T16:10:47.151Z,25.78
2022-08-04T16:13:21.480Z,25.80
2022-08-04T16:16:03.419Z,25.75
2022-08-04T16:18:31.419Z,25.84
2022-08-04T16:21:05.734Z,25.53
2022-08-04T16:24:14.774Z,25.87
2022-08-04T16:26:46.291Z,25.85
2022-08-04T16:29:22.811Z,25.65
2022-08-04T16:32:06.407Z,25.67
2022-08-04T16:34:50.385Z,25.19
2022-08-04T16:37:35.131Z,25.30
2022-08-04T16:40:37.115Z,24.85
2022-08-04T16:43:14.837Z,24.89
2022-08-04T16:45:56.000Z,24.68
2022-08-04T16:48:29.839Z,24.91
2022-08-04T16:51:15.932Z,24.58
2022-08-04T16:53:52.347Z,24.64
2022-08-04T16:56:33.667Z,24.82
2022-08-04T16:59:11.650Z,24.83
2022-08-04T17:01:51.114Z,24.60
2022-08-04T17:04:32.137Z,24.45
2022-08-04T17:07:05.712Z,24.48
2022-08-04T17:09:33.582Z,24.75
2022-08-04T17:12:02.232Z,24.48
2022-08-04T17:14:31.246Z,24.59
2022-08-04T17:17:02.478Z,24.51
2022-08-04T17:19:30.219Z,24.52
2022-08-04T17:22:08.550Z,24.75
2022-08-04T17:24:40.934Z,24.61
2022-08-04T17:28:19.433Z,24.71
2022-08-04T17:29:58.139Z,24.65
2022-08-04T17:32:25.895Z,24.55
2022-08-04T17:34:58.611Z,24.50
2022-08-04T17:37:38.162Z,24.53
2022-08-04T17:40:18.303Z,24.66
2022-08-04T17:44:01.093Z,24.38
2022-08-04T17:46:28.615Z,24.36
2022-08-04T17:49:22.362Z,24.38
2022-08-04T17:52:06.343Z,24.39
2022-08-04T17:54:38.723Z,24.59
2022-08-04T17:57:22.193Z,24.56
2022-08-04T17:59:59.948Z,24.60
2022-08-04T18:02:32.267Z,24.54
2022-08-04T18:05:08.026Z,24.61
2022-08-04T18:08:39.959Z,24.59
2022-08-04T18:10:55.845Z,24.46
2022-08-04T18:13:26.398Z,24.21
2022-08-04T18:16:14.311Z,24.50
2022-08-04T18:19:19.865Z,24.36
2022-08-04T18:21:59.829Z,24.42
2022-08-04T18:24:55.506Z,24.49
2022-08-04T18:27:30.523Z,24.46
2022-08-04T18:33:10.419Z,24.46
2022-08-04T18:36:32.925Z,24.62
2022-08-04T18:38:24.330Z,24.61
2022-08-04T18:40:54.683Z,24.62
2022-08-04T18:43:27.936Z,24.62
2022-08-04T18:45:59.496Z,24.61
2022-08-04T18:48:35.943Z,24.64
2022-08-04T18:51:09.981Z,24.50
2022-08-04T18:53:44.800Z,24.54
2022-08-04T18:56:29.927Z,24.52
2022-08-04T18:59:10.401Z,24.48
2022-08-04T19:02:12.739Z,24.46
2022-08-04T19:04:33.786Z,24.35
2022-08-04T19:07:29.288Z,24.36
2022-08-04T19:09:58.533Z,24.29
2022-08-04T19:12:28.786Z,24.14
2022-08-04T19:15:08.515Z,24.05
2022-08-04T19:17:54.238Z,24.02
2022-08-04T19:20:29.454Z,23.96
2022-08-04T19:24:29.164Z,24.03
2022-08-04T19:25:59.581Z,23.92
2022-08-04T19:28:36.956Z,23.79
2022-08-04T19:31:08.233Z,23.88
2022-08-04T19:33:59.210Z,23.81
2022-08-04T19:36:31.051Z,23.76
2022-08-04T19:39:11.643Z,23.81
2022-08-04T19:42:05.560Z,23.62
2022-08-04T19:44:30.145Z,23.61
2022-08-04T19:47:00.449Z,23.45
2022-08-04T19:50:04.946Z,23.47
2022-08-04T19:52:34.132Z,23.17
2022-08-04T19:55:09.618Z,23.42
2022-08-04T19:57:46.043Z,23.51
2022-08-04T20:00:16.285Z,23.32
2022-08-04T20:02:45.401Z,23.31
2022-08-04T20:05:13.813Z,23.43
2022-08-04T20:07:41.535Z,23.33
2022-08-04T20:10:12.979Z,23.45
2022-08-04T20:12:42.078Z,23.23
2022-08-04T20:15:11.066Z,23.36
2022-08-04T20:18:34.800Z,23.08
2022-08-04T20:20:31.213Z,23.28
2022-08-04T20:22:59.459Z,23.30
2022-08-04T20:25:37.240Z,23.33
2022-08-04T20:28:06.663Z,23.22
2022-08-04T20:30:34.343Z,23.16
2022-08-04T20:33:04.254Z,23.34
2022-08-04T20:36:00.852Z,23.29
2022-08-04T20:38:33.712Z,23.32
2022-08-04T20:41:02.969Z,23.19
2022-08-04T20:43:31.358Z,23.29
2022-08-04T20:45:59.799Z,23.17
2022-08-04T20:48:29.485Z,23.13
2022-08-04T20:51:01.385Z,23.16
2022-08-04T20:53:32.794Z,23.16
2022-08-04T20:56:19.354Z,23.05
2022-08-04T20:58:59.787Z,22.88
2022-08-04T21:01:30.066Z,23.06
2022-08-04T21:04:27.387Z,22.98
2022-08-04T21:07:01.325Z,23.10
2022-08-04T21:09:38.273Z,23.09
2022-08-04T21:12:26.673Z,23.10
2022-08-04T21:15:00.164Z,22.90
2022-08-04T21:17:57.601Z,22.83
2022-08-04T21:20:27.265Z,22.99
2022-08-04T21:22:59.535Z,22.94
2022-08-04T21:25:27.632Z,23.04
2022-08-04T21:27:58.761Z,22.81
2022-08-04T21:30:27.149Z,22.86
2022-08-04T21:32:55.704Z,22.66
2022-08-04T21:35:30.126Z,22.67
2022-08-04T21:38:16.224Z,22.88
2022-08-04T21:41:01.469Z,22.80
2022-08-04T21:43:42.550Z,22.94
2022-08-04T21:46:11.733Z,22.87
2022-08-04T21:48:42.346Z,22.68
2022-08-04T21:51:58.610Z,22.77
2022-08-04T21:54:15.057Z,22.82
2022-08-04T21:56:51.385Z,22.70
2022-08-04T21:59:33.785Z,22.75
2022-08-04T22:02:13.841Z,22.58
2022-08-04T22:04:44.020Z,22.66
2022-08-04T22:07:11.670Z,22.55
2022-08-04T22:09:41.579Z,22.59
2022-08-04T22:12:13.792Z,22.51
2022-08-04T22:14:50.399Z,22.41
2022-08-04T22:17:26.550Z,22.44
2022-08-04T22:20:04.443Z,22.51
2022-08-04T22:22:35.758Z,22.53
2022-08-04T22:25:13.367Z,22.47
2022-08-04T22:28:01.438Z,22.36
2022-08-04T22:30:37.441Z,22.21
2022-08-04T22:33:08.830Z,22.25
2022-08-04T22:35:48.658Z,22.26
2022-08-04T22:38:24.513Z,22.21
2022-08-04T22:40:58.803Z,22.18
2022-08-04T22:43:32.804Z,22.11
2022-08-04T22:46:05.077Z,22.07
2022-08-04T22:48:38.424Z,21.95
2022-08-04T22:51:08.146Z,22.06
2022-08-04T22:53:36.340Z,21.97
2022-08-04T22:56:10.739Z,22.05
2022-08-04T22:58:51.092Z,22.10
2022-08-04T23:01:19.572Z,21.96
2022-08-04T23:03:51.078Z,21.94
2022-08-04T23:06:28.562Z,21.82
2022-08-04T23:08:57.769Z,21.80
2022-08-04T23:11:34.610Z,21.90
2022-08-04T23:14:07.179Z,21.92
2022-08-04T23:16:40.394Z,21.54
2022-08-04T23:19:12.093Z,21.87
2022-08-04T23:21:47.982Z,21.89
2022-08-04T23:24:30.181Z,21.88
2022-08-04T23:26:59.255Z,21.87
2022-08-04T23:29:27.502Z,21.93
2022-08-04T23:31:59.645Z,21.98
2022-08-04T23:34:29.477Z,21.89
2022-08-04T23:36:59.068Z,22.02
2022-08-04T23:40:03.413Z,21.97
2022-08-04T23:42:20.791Z,21.90
2022-08-04T23:44:50.195Z,21.92
2022-08-04T23:48:18.457Z,21.68
2022-08-04T23:50:06.539Z,21.77
2022-08-04T23:52:34.150Z,21.71
2022-08-04T23:55:02.372Z,21.66
2022-08-04T23:57:31.318Z,21.76
